createdAt,value
2022-07-30T06:01:27.220Z,16.60
2022-07-30T06:03:28.937Z,16.70
2022-07-30T06:05:32.511Z,16.70
2022-07-30T06:07:34.824Z,16.80
2022-07-30T06:09:37.421Z,16.80
2022-07-30T06:11:39.169Z,16.90
2022-07-30T06:13:40.899Z,16.90
2022-07-30T06:15:42.713Z,17.00
2022-07-30T06:17:51.120Z,17.00
2022-07-30T06:20:01.113Z,17.10
2022-07-30T06:22:07.097Z,17.20
2022-07-30T06:24:09.344Z,17.30
2022-07-30T06:26:11.041Z,17.30
2022-07-30T06:28:35.271Z,17.40
2022-07-30T06:30:34.593Z,17.50
2022-07-30T06:32:36.616Z,17.50
2022-07-30T06:34:38.350Z,17.70
2022-07-30T06:36:40.073Z,17.80
2022-07-30T06:38:42.079Z,17.90
2022-07-30T06:40:43.788Z,18.00
2022-07-30T06:42:45.811Z,18.10
2022-07-30T06:44:47.546Z,18.10
2022-07-30T06:46:49.366Z,18.20
2022-07-30T06:48:51.113Z,18.30
2022-07-30T06:50:52.833Z,18.40
2022-07-30T06:52:54.490Z,18.60
2022-07-30T06:54:56.256Z,18.70
2022-07-30T06:56:58.034Z,18.80
2022-07-30T06:58:59.887Z,18.90
2022-07-30T07:01:01.615Z,19.00
2022-07-30T07:03:03.349Z,19.20
2022-07-30T07:05:05.969Z,19.40
2022-07-30T07:07:12.191Z,19.70
2022-07-30T07:09:15.226Z,20.70
2022-07-30T07:11:16.918Z,22.10
2022-07-30T07:13:18.646Z,23.20
2022-07-30T07:15:22.453Z,24.10
2022-07-30T07:17:40.299Z,25.10
2022-07-30T07:20:01.669Z,25.80
2022-07-30T07:22:03.740Z,26.40
2022-07-30T07:24:05.645Z,26.50
2022-07-30T07:26:07.323Z,26.80
2022-07-30T07:28:11.725Z,27.30
2022-07-30T07:30:15.145Z,27.70
2022-07-30T07:32:16.919Z,27.70
2022-07-30T07:34:18.639Z,27.90
2022-07-30T07:36:23.738Z,28.30
2022-07-30T07:38:25.514Z,28.50
2022-07-30T07:40:27.377Z,28.70
2022-07-30T07:42:29.059Z,29.20
2022-07-30T07:44:30.778Z,29.20
2022-07-30T07:46:33.433Z,29.30
2022-07-30T07:48:36.117Z,28.50
2022-07-30T07:50:38.530Z,28.50
2022-07-30T07:52:40.286Z,28.60
2022-07-30T07:54:41.970Z,28.70
2022-07-30T07:56:44.419Z,28.80
2022-07-30T07:58:47.690Z,28.00
2022-07-30T08:00:51.618Z,28.30
2022-07-30T08:02:53.465Z,28.50
2022-07-30T08:04:55.178Z,29.30
2022-07-30T08:06:56.864Z,29.70
2022-07-30T08:08:58.630Z,30.30
2022-07-30T08:11:00.346Z,30.50
2022-07-30T08:13:03.962Z,30.70
2022-07-30T08:15:06.786Z,30.50
2022-07-30T08:17:09.130Z,30.40
2022-07-30T08:19:12.096Z,30.10
2022-07-30T08:21:15.278Z,30.30
2022-07-30T08:23:18.011Z,30.30
2022-07-30T08:25:21.851Z,30.00
2022-07-30T08:27:26.262Z,30.50
2022-07-30T08:29:29.885Z,30.60
2022-07-30T08:31:31.665Z,30.70
2022-07-30T08:33:36.294Z,30.50
2022-07-30T08:35:38.109Z,30.50
2022-07-30T08:37:54.722Z,30.30
2022-07-30T08:39:56.418Z,31.10
2022-07-30T08:41:58.999Z,31.10
2022-07-30T08:44:01.571Z,30.70
2022-07-30T08:46:07.109Z,30.20
2022-07-30T08:48:14.937Z,29.80
2022-07-30T08:50:18.490Z,30.10
2022-07-30T08:52:20.752Z,29.60
2022-07-30T08:54:22.969Z,29.60
2022-07-30T08:56:24.945Z,29.90
2022-07-30T08:58:31.574Z,30.30
2022-07-30T09:00:33.571Z,30.70
2022-07-30T09:02:35.392Z,31.00
2022-07-30T09:04:37.261Z,31.50
2022-07-30T09:06:40.873Z,31.50
2022-07-30T09:08:44.206Z,30.60
2022-07-30T09:10:52.973Z,29.00
2022-07-30T09:12:55.261Z,28.30
2022-07-30T09:15:08.016Z,27.80
2022-07-30T09:17:09.987Z,26.40
2022-07-30T09:19:17.807Z,25.80
2022-07-30T09:21:24.827Z,25.50
2022-07-30T09:23:26.683Z,26.40
2022-07-30T09:25:45.930Z,28.00
2022-07-30T09:27:50.565Z,29.80
2022-07-30T09:29:59.483Z,30.80
2022-07-30T09:32:06.958Z,31.00
2022-07-30T09:34:31.863Z,31.60
2022-07-30T09:36:33.557Z,32.00
2022-07-30T09:38:44.435Z,32.50
2022-07-30T09:40:51.415Z,30.80
2022-07-30T09:43:04.258Z,29.60
2022-07-30T09:45:11.523Z,28.00
2022-07-30T09:47:37.214Z,26.80
2022-07-30T09:49:41.795Z,26.30
2022-07-30T09:51:55.874Z,27.40
2022-07-30T09:53:59.316Z,27.30
2022-07-30T09:56:22.095Z,26.70
2022-07-30T09:58:39.695Z,26.10
2022-07-30T10:00:47.636Z,25.10
2022-07-30T10:02:50.448Z,25.10
2022-07-30T10:04:52.569Z,26.40
2022-07-30T10:06:55.070Z,27.50
2022-07-30T10:08:57.233Z,28.70
2022-07-30T10:10:59.982Z,29.40
2022-07-30T10:13:13.955Z,29.90
2022-07-30T10:15:20.391Z,30.10
2022-07-30T10:17:22.965Z,30.90
2022-07-30T10:19:39.968Z,31.90
2022-07-30T10:21:44.126Z,32.40
2022-07-30T10:23:46.249Z,32.90
2022-07-30T10:25:57.164Z,33.60
2022-07-30T10:28:00.104Z,32.80
2022-07-30T10:30:05.680Z,31.20
2022-07-30T10:32:09.460Z,29.90
2022-07-30T10:34:13.461Z,28.60
2022-07-30T10:36:15.772Z,27.50
2022-07-30T10:38:21.962Z,27.30
2022-07-30T10:40:47.650Z,27.70
2022-07-30T10:43:14.049Z,29.10
2022-07-30T10:45:46.297Z,29.00
2022-07-30T10:47:54.848Z,27.60
2022-07-30T10:50:13.010Z,26.80
2022-07-30T10:52:14.757Z,27.40
2022-07-30T10:54:42.031Z,28.60
2022-07-30T10:56:51.838Z,29.30
2022-07-30T10:59:00.702Z,29.80
2022-07-30T11:01:04.934Z,29.40
2022-07-30T11:03:22.047Z,29.20
2022-07-30T11:05:43.889Z,29.80
2022-07-30T11:07:47.662Z,30.80
2022-07-30T11:10:09.316Z,31.30
2022-07-30T11:12:15.664Z,31.70
2022-07-30T11:14:20.519Z,30.90
2022-07-30T11:16:24.779Z,30.50
2022-07-30T11:18:28.686Z,30.70
2022-07-30T11:20:34.994Z,30.90
2022-07-30T11:22:40.288Z,30.50
2022-07-30T11:24:43.089Z,29.80
2022-07-30T11:26:49.327Z,28.80
2022-07-30T11:28:52.591Z,27.80
2022-07-30T11:30:55.372Z,27.40
2022-07-30T11:33:04.139Z,27.40
2022-07-30T11:35:24.267Z,27.40
2022-07-30T11:37:32.094Z,27.20
2022-07-30T11:39:55.839Z,26.70
2022-07-30T11:42:24.487Z,26.30
2022-07-30T11:44:27.805Z,27.20
2022-07-30T11:46:29.817Z,28.50
2022-07-30T11:48:32.326Z,28.80
2022-07-30T11:50:34.949Z,28.60
2022-07-30T11:52:36.717Z,27.60
2022-07-30T11:54:52.847Z,27.40
2022-07-30T11:57:02.130Z,27.80
2022-07-30T11:59:07.739Z,28.70
2022-07-30T12:01:14.670Z,29.00
2022-07-30T12:03:18.792Z,29.60
2022-07-30T12:05:25.987Z,29.70
2022-07-30T12:07:27.858Z,28.60
2022-07-30T12:09:29.698Z,28.30
2022-07-30T12:11:35.317Z,28.90
2022-07-30T12:13:44.527Z,29.50
2022-07-30T12:15:49.124Z,30.40
2022-07-30T12:17:56.944Z,30.90
2022-07-30T12:20:17.816Z,31.00
2022-07-30T12:22:19.762Z,31.50
2022-07-30T12:24:26.668Z,32.30
2022-07-30T12:26:30.601Z,32.80
2022-07-30T12:28:35.594Z,32.00
2022-07-30T12:30:41.208Z,30.70
2022-07-30T12:32:46.880Z,29.40
2022-07-30T12:34:58.286Z,28.50
2022-07-30T12:37:10.493Z,27.90
2022-07-30T12:39:25.785Z,27.80
2022-07-30T12:41:47.790Z,28.50
2022-07-30T12:43:54.273Z,29.70
2022-07-30T12:45:59.540Z,30.80
2022-07-30T12:48:01.699Z,31.40
2022-07-30T12:50:17.171Z,32.10
2022-07-30T12:52:28.519Z,31.80
2022-07-30T12:54:30.941Z,31.70
2022-07-30T12:56:32.793Z,30.60
2022-07-30T12:58:38.189Z,29.80
2022-07-30T13:00:48.209Z,29.80
2022-07-30T13:02:50.325Z,30.20
2022-07-30T13:04:59.022Z,31.20
2022-07-30T13:07:13.545Z,31.70
2022-07-30T13:09:21.654Z,32.00
2022-07-30T13:11:41.675Z,31.30
2022-07-30T13:13:51.385Z,30.80
2022-07-30T13:16:05.222Z,31.80
2022-07-30T13:18:07.342Z,32.30
2022-07-30T13:20:09.865Z,32.00
2022-07-30T13:22:12.050Z,32.30
2022-07-30T13:24:18.153Z,32.60
2022-07-30T13:26:20.037Z,32.80
2022-07-30T13:28:21.900Z,32.40
2022-07-30T13:30:23.583Z,31.80
2022-07-30T13:32:25.316Z,31.80
2022-07-30T13:34:27.009Z,32.50
2022-07-30T13:36:28.696Z,33.60
2022-07-30T13:38:30.598Z,34.60
2022-07-30T13:40:33.037Z,34.70
2022-07-30T13:42:34.930Z,34.80
2022-07-30T13:44:36.637Z,33.90
2022-07-30T13:46:41.051Z,32.60
2022-07-30T13:48:43.094Z,31.50
2022-07-30T13:50:45.010Z,31.00
2022-07-30T13:52:46.940Z,31.20
2022-07-30T13:54:51.220Z,30.90
2022-07-30T13:56:53.409Z,31.30
2022-07-30T13:58:55.081Z,31.90
2022-07-30T14:00:57.878Z,32.30
2022-07-30T14:03:04.802Z,33.10
2022-07-30T14:05:07.194Z,33.50
2022-07-30T14:07:08.947Z,33.60
2022-07-30T14:09:10.645Z,33.90
2022-07-30T14:11:12.496Z,33.00
2022-07-30T14:13:21.180Z,32.60
2022-07-30T14:15:24.691Z,33.20
2022-07-30T14:17:26.471Z,33.70
2022-07-30T14:19:28.134Z,33.70
2022-07-30T14:21:29.837Z,32.90
2022-07-30T14:23:31.501Z,32.90
2022-07-30T14:25:33.166Z,33.30
2022-07-30T14:27:36.274Z,33.40
2022-07-30T14:29:37.992Z,33.70
2022-07-30T14:31:40.779Z,33.90
2022-07-30T14:33:42.498Z,34.00
2022-07-30T14:35:44.166Z,34.20
2022-07-30T14:37:45.828Z,33.70
2022-07-30T14:39:47.505Z,33.30
2022-07-30T14:41:53.184Z,32.50
2022-07-30T14:43:58.007Z,32.10
2022-07-30T14:45:59.729Z,31.70
2022-07-30T14:48:01.417Z,31.60
2022-07-30T14:50:04.859Z,31.70
2022-07-30T14:52:06.688Z,32.10
2022-07-30T14:54:11.821Z,32.00
2022-07-30T14:56:13.880Z,31.70
2022-07-30T14:58:16.093Z,31.80
2022-07-30T15:00:17.996Z,32.00
2022-07-30T15:02:19.975Z,31.50
2022-07-30T15:04:21.762Z,30.90
2022-07-30T15:06:23.440Z,30.80
2022-07-30T15:08:25.105Z,31.00
2022-07-30T15:10:26.817Z,30.80
2022-07-30T15:12:28.775Z,31.10
2022-07-30T15:14:30.729Z,31.10
2022-07-30T15:16:32.772Z,30.70
2022-07-30T15:18:34.578Z,30.60
2022-07-30T15:20:36.533Z,30.50
2022-07-30T15:22:38.499Z,29.90
2022-07-30T15:24:40.307Z,29.20
2022-07-30T15:26:42.417Z,28.40
2022-07-30T15:28:44.142Z,28.30
2022-07-30T15:30:45.988Z,28.80
2022-07-30T15:32:47.738Z,29.10
2022-07-30T15:34:49.464Z,29.00
2022-07-30T15:36:51.202Z,28.70
2022-07-30T15:38:52.910Z,28.70
2022-07-30T15:40:55.518Z,28.80
2022-07-30T15:42:57.189Z,28.70
2022-07-30T15:45:16.479Z,28.50
2022-07-30T15:47:18.822Z,28.30
2022-07-30T15:49:20.941Z,28.10
2022-07-30T15:51:22.940Z,28.00
2022-07-30T15:53:24.632Z,28.20
2022-07-30T15:55:26.926Z,28.10
2022-07-30T15:57:28.608Z,28.00
2022-07-30T15:59:31.230Z,27.80
2022-07-30T16:01:34.100Z,27.60
2022-07-30T16:03:35.877Z,27.50
2022-07-30T16:05:51.290Z,27.70
2022-07-30T16:07:54.297Z,28.20
2022-07-30T16:09:56.190Z,28.60
2022-07-30T16:11:58.397Z,28.60
2022-07-30T16:14:00.524Z,28.30
2022-07-30T16:16:02.250Z,27.90
2022-07-30T16:18:04.441Z,27.20
2022-07-30T16:20:06.659Z,26.80
2022-07-30T16:22:08.569Z,26.40
2022-07-30T16:24:10.395Z,25.90
2022-07-30T16:26:12.054Z,25.90
2022-07-30T16:28:13.788Z,26.00
2022-07-30T16:30:15.596Z,26.30
2022-07-30T16:32:17.551Z,26.70
2022-07-30T16:34:23.047Z,26.80
2022-07-30T16:36:28.523Z,27.10
2022-07-30T16:38:30.345Z,27.40
2022-07-30T16:40:33.065Z,27.80
2022-07-30T16:42:34.785Z,28.30
2022-07-30T16:44:36.482Z,28.60
2022-07-30T16:46:38.745Z,28.80
2022-07-30T16:48:40.524Z,29.00
2022-07-30T16:50:42.725Z,29.10
2022-07-30T16:52:44.701Z,28.90
2022-07-30T16:54:46.992Z,29.00
2022-07-30T16:56:52.605Z,29.20
2022-07-30T16:58:54.298Z,29.50
2022-07-30T17:00:56.151Z,29.30
2022-07-30T17:02:57.849Z,29.40
2022-07-30T17:04:59.549Z,29.40
2022-07-30T17:07:01.290Z,29.20
2022-07-30T17:09:03.033Z,29.10
2022-07-30T17:11:09.854Z,29.10
2022-07-30T17:13:13.434Z,29.20
2022-07-30T17:15:15.136Z,29.30
2022-07-30T17:17:17.097Z,29.30
2022-07-30T17:19:18.888Z,29.40
2022-07-30T17:21:20.569Z,29.30
2022-07-30T17:23:22.237Z,29.10
2022-07-30T17:25:28.245Z,28.70
2022-07-30T17:27:31.561Z,28.10
2022-07-30T17:29:33.257Z,27.50
2022-07-30T17:31:35.337Z,27.20
2022-07-30T17:33:37.023Z,26.70
2022-07-30T17:35:38.852Z,26.30
2022-07-30T17:37:40.834Z,26.10
2022-07-30T17:40:01.657Z,26.00
2022-07-30T17:42:04.326Z,25.90
2022-07-30T17:44:06.189Z,25.90
2022-07-30T17:46:07.862Z,25.60
2022-07-30T17:48:09.737Z,25.50
2022-07-30T17:50:11.509Z,25.30
2022-07-30T17:52:13.296Z,25.20
2022-07-30T17:54:14.977Z,25.20
2022-07-30T17:56:26.467Z,25.10
2022-07-30T17:58:29.069Z,25.00
2022-07-30T18:00:31.952Z,24.90
2022-07-30T18:02:33.657Z,24.70
2022-07-30T18:04:35.760Z,24.50
2022-07-30T18:06:37.490Z,24.40
2022-07-30T18:08:39.198Z,24.30
2022-07-30T18:10:40.965Z,24.10
2022-07-30T18:12:48.936Z,24.00
2022-07-30T18:14:51.928Z,23.90
2022-07-30T18:16:54.400Z,23.80
2022-07-30T18:18:56.211Z,23.70
2022-07-30T18:20:57.937Z,23.70
2022-07-30T18:23:03.169Z,23.60
2022-07-30T18:25:18.874Z,23.60
2022-07-30T18:27:20.962Z,23.50
2022-07-30T18:29:23.046Z,23.50
2022-07-30T18:31:24.820Z,23.40
2022-07-30T18:33:26.569Z,23.30
2022-07-30T18:35:28.589Z,23.30
2022-07-30T18:37:40.168Z,23.20
2022-07-30T18:39:43.790Z,23.10
2022-07-30T18:41:45.482Z,22.90
2022-07-30T18:43:48.065Z,22.80
2022-07-30T18:45:51.376Z,22.70
2022-07-30T18:47:53.059Z,22.70
2022-07-30T18:49:55.327Z,22.60
2022-07-30T18:51:59.150Z,22.40
2022-07-30T18:54:01.002Z,22.30
2022-07-30T18:56:02.781Z,22.20
2022-07-30T18:58:04.441Z,22.10
2022-07-30T19:00:08.770Z,22.00
2022-07-30T19:02:10.472Z,22.00
2022-07-30T19:04:12.225Z,21.90
2022-07-30T19:06:15.775Z,21.80
2022-07-30T19:08:17.685Z,21.70
2022-07-30T19:10:19.633Z,21.60
2022-07-30T19:12:22.323Z,21.50
2022-07-30T19:14:24.174Z,21.40
2022-07-30T19:16:25.938Z,21.30
2022-07-30T19:18:27.636Z,21.30
2022-07-30T19:20:29.317Z,21.20
2022-07-30T19:22:31.012Z,21.10
2022-07-30T19:24:32.701Z,21.00
2022-07-30T19:26:34.721Z,21.00
2022-07-30T19:28:36.743Z,20.90
2022-07-30T19:30:39.162Z,20.90
2022-07-30T19:32:40.979Z,20.80
2022-07-30T19:34:43.643Z,20.80
2022-07-30T19:36:45.338Z,20.70
2022-07-30T19:38:48.921Z,20.70
2022-07-30T19:40:51.171Z,20.60
2022-07-30T19:42:55.666Z,20.60
2022-07-30T19:44:57.909Z,20.60
2022-07-30T19:47:02.942Z,20.50
2022-07-30T19:49:07.295Z,20.50
2022-07-30T19:51:15.781Z,20.50
2022-07-30T19:53:22.821Z,20.50
2022-07-30T19:55:31.056Z,20.50
2022-07-30T19:57:45.676Z,20.50
2022-07-30T20:00:00.047Z,20.40
2022-07-30T20:02:06.073Z,20.40
2022-07-30T20:04:11.269Z,20.50
2022-07-30T20:06:16.022Z,20.40
2022-07-30T20:08:18.391Z,20.50
2022-07-30T20:10:26.835Z,20.40
2022-07-30T20:12:31.342Z,20.40
2022-07-30T20:14:33.082Z,20.30
2022-07-30T20:16:35.546Z,20.20
2022-07-30T20:18:41.010Z,20.10
2022-07-30T20:20:42.931Z,20.10
2022-07-30T20:22:44.847Z,19.90
2022-07-30T20:24:48.579Z,19.90
2022-07-30T20:26:50.530Z,19.80
2022-07-30T20:28:52.933Z,19.70
2022-07-30T20:30:54.647Z,19.70
2022-07-30T20:33:01.556Z,19.60
2022-07-30T20:35:04.435Z,19.50
2022-07-30T20:37:19.560Z,19.50
2022-07-30T20:39:25.753Z,19.50
2022-07-30T20:41:27.840Z,19.40
2022-07-30T20:43:29.849Z,19.40
2022-07-30T20:45:40.379Z,19.30
2022-07-30T20:47:43.670Z,19.20
2022-07-30T20:49:49.289Z,19.20
2022-07-30T20:51:51.716Z,19.20
2022-07-30T20:53:55.877Z,19.10
2022-07-30T20:56:01.397Z,19.10
2022-07-30T20:58:12.563Z,19.10
2022-07-30T21:00:20.094Z,19.10
2022-07-30T21:02:26.820Z,19.00
2022-07-30T21:04:32.021Z,19.00
2022-07-30T21:06:37.200Z,19.00
2022-07-30T21:08:39.481Z,18.90
2022-07-30T21:10:44.456Z,18.80
2022-07-30T21:12:50.852Z,18.80
2022-07-30T21:14:56.037Z,18.70
2022-07-30T21:16:57.734Z,18.70
2022-07-30T21:18:59.705Z,18.70
2022-07-30T21:21:05.848Z,18.60
2022-07-30T21:23:11.540Z,18.60
2022-07-30T21:25:13.346Z,18.60
2022-07-30T21:27:15.013Z,18.60
2022-07-30T21:29:17.869Z,18.60
2022-07-30T21:31:20.026Z,18.60
2022-07-30T21:33:41.726Z,18.60
2022-07-30T21:35:43.601Z,18.60
2022-07-30T21:37:45.405Z,18.60
2022-07-30T21:39:47.457Z,18.60
2022-07-30T21:41:49.294Z,18.50
2022-07-30T21:43:51.025Z,18.50
2022-07-30T21:45:54.864Z,18.50
2022-07-30T21:47:57.306Z,18.50
2022-07-30T21:50:01.420Z,18.50
2022-07-30T21:52:05.406Z,18.50
2022-07-30T21:54:07.786Z,18.50
2022-07-30T21:56:12.045Z,18.50
2022-07-30T21:58:26.245Z,18.50
2022-07-30T22:00:50.133Z,18.50
2022-07-30T22:02:53.336Z,18.50
2022-07-30T22:04:56.489Z,18.60
2022-07-30T22:07:02.366Z,18.60
2022-07-30T22:09:19.675Z,18.70
2022-07-30T22:11:42.426Z,18.80
2022-07-30T22:13:51.423Z,18.90
2022-07-30T22:15:55.930Z,19.00
2022-07-30T22:18:00.983Z,19.10
2022-07-30T22:20:02.999Z,19.20
2022-07-30T22:22:25.883Z,19.20
2022-07-30T22:24:30.271Z,19.10
2022-07-30T22:26:33.059Z,19.10
2022-07-30T22:28:35.178Z,19.10
2022-07-30T22:30:39.538Z,19.00
2022-07-30T22:32:41.527Z,18.90
2022-07-30T22:34:44.891Z,18.80
2022-07-30T22:36:46.773Z,18.70
2022-07-30T22:38:58.563Z,18.70
2022-07-30T22:41:01.548Z,18.70
2022-07-30T22:43:12.638Z,18.60
2022-07-30T22:45:14.448Z,18.60
2022-07-30T22:47:21.165Z,18.50
2022-07-30T22:49:50.320Z,18.50
2022-07-30T22:52:04.872Z,18.40
2022-07-30T22:54:13.022Z,18.40
2022-07-30T22:56:15.921Z,18.30
2022-07-30T22:58:18.643Z,18.30
2022-07-30T23:00:27.268Z,18.20
2022-07-30T23:02:30.277Z,18.20
2022-07-30T23:04:32.986Z,18.20
2022-07-30T23:06:34.877Z,18.20
2022-07-30T23:08:36.558Z,18.20
2022-07-30T23:10:38.300Z,18.30
2022-07-30T23:12:42.025Z,18.20
2022-07-30T23:14:43.920Z,18.20
2022-07-30T23:16:50.207Z,18.10
2022-07-30T23:18:53.073Z,18.00
2022-07-30T23:20:59.880Z,18.10
2022-07-30T23:23:02.955Z,18.10
2022-07-30T23:25:06.426Z,18.10
2022-07-30T23:27:08.155Z,18.10
2022-07-30T23:29:15.788Z,18.10
2022-07-30T23:31:17.630Z,18.10
2022-07-30T23:33:19.368Z,18.10
2022-07-30T23:35:21.205Z,18.10
2022-07-30T23:37:22.904Z,18.00
2022-07-30T23:39:24.583Z,18.00
2022-07-30T23:41:30.446Z,18.00
2022-07-30T23:43:33.825Z,17.90
2022-07-30T23:45:35.604Z,17.90
2022-07-30T23:48:01.491Z,18.00
2022-07-30T23:49:59.912Z,17.90
2022-07-30T23:52:01.610Z,17.90
2022-07-30T23:54:03.554Z,17.90
2022-07-30T23:56:05.304Z,17.90
2022-07-30T23:58:07.022Z,17.90
